Time;durP1;ratioP1;P1;durP2;ratioP2;P2;SDS_P1;SDS_P2;PMS_P1;PMS_P2;Temp;Humidity;BMP_temperature;BMP_pressure;BME280_temperature;BME280_humidity;BME280_pressure;Samples;Min_cycle;Max_cycle;Signal;HPM_P1;HPM_P2
2023/10/10 00:01:17;;;;;;;7.75;3.38;;;;;;;;;;5021951;28;20026;-64
2023/10/10 00:03:45;;;;;;;9.85;3.83;;;;;;;;;;5023276;28;20112;-63
2023/10/10 00:06:13;;;;;;;5.63;3.45;;;;;;;;;;5017565;28;20034;-64
2023/10/10 00:08:46;;;;;;;8.48;3.90;;;;;;;;;;5014183;28;20029;-63
2023/10/10 00:11:19;;;;;;;6.22;3.63;;;;;;;;;;5022883;28;20493;-64
2023/10/10 00:13:46;;;;;;;6.28;3.60;;;;;;;;;;5023898;28;20045;-63
2023/10/10 00:16:19;;;;;;;6.60;3.80;;;;;;;;;;5014329;28;20026;-64
2023/10/10 00:18:46;;;;;;;6.43;4.25;;;;;;;;;;5020022;28;20431;-64
2023/10/10 00:21:23;;;;;;;7.15;3.65;;;;;;;;;;5025977;28;20084;-64
2023/10/10 00:23:50;;;;;;;6.88;3.97;;;;;;;;;;5023242;28;20104;-63
2023/10/10 00:26:26;;;;;;;5.38;3.92;;;;;;;;;;5024681;28;20036;-63
2023/10/10 00:28:55;;;;;;;9.68;4.22;;;;;;;;;;5025683;28;20079;-63
2023/10/10 00:31:22;;;;;;;6.13;4.00;;;;;;;;;;5024391;28;20075;-64
2023/10/10 00:33:50;;;;;;;4.70;3.53;;;;;;;;;;5017610;28;20025;-67
2023/10/10 00:36:31;;;;;;;6.93;4.03;;;;;;;;;;5013118;28;20120;-67
2023/10/10 00:39:12;;;;;;;8.00;4.00;;;;;;;;;;5018830;28;20048;-63
2023/10/10 00:41:51;;;;;;;6.47;3.63;;;;;;;;;;5024672;28;20061;-63
2023/10/10 00:44:17;;;;;;;5.70;3.38;;;;;;;;;;5019680;28;20159;-63
2023/10/10 00:46:51;;;;;;;6.45;3.72;;;;;;;;;;5017506;28;20049;-64
2023/10/10 00:49:23;;;;;;;9.52;3.55;;;;;;;;;;5020998;28;20083;-63
2023/10/10 00:51:50;;;;;;;7.55;4.03;;;;;;;;;;5022751;28;20227;-63
2023/10/10 00:56:56;;;;;;;5.22;3.53;;;;;;;;;;5018177;28;20182;-64
2023/10/10 01:00:09;;;;;;;4.78;3.58;;;;;;;;;;5011379;28;20171;-64
2023/10/10 01:02:20;;;;;;;6.38;3.40;;;;;;;;;;5018703;28;20037;-63
2023/10/10 01:04:57;;;;;;;8.00;4.22;;;;;;;;;;5020316;28;20083;-64
2023/10/10 01:07:25;;;;;;;7.82;3.33;;;;;;;;;;5011474;28;20457;-64
2023/10/10 01:12:22;;;;;;;6.57;4.30;;;;;;;;;;5021646;28;20492;-63
2023/10/10 01:14:57;;;;;;;6.85;3.40;;;;;;;;;;5021355;28;20363;-63
2023/10/10 01:17:29;;;;;;;9.52;3.72;;;;;;;;;;5022111;28;20444;-64
2023/10/10 01:19:55;;;;;;;6.85;3.53;;;;;;;;;;5017885;28;20041;-63
2023/10/10 01:22:37;;;;;;;5.65;3.50;;;;;;;;;;5023871;28;20029;-64
2023/10/10 01:25:27;;;;;;;7.80;3.60;;;;;;;;;;5017527;28;20056;-63
2023/10/10 01:27:53;;;;;;;8.13;4.10;;;;;;;;;;5025465;28;20410;-64
2023/10/10 01:30:20;;;;;;;5.15;3.60;;;;;;;;;;5016628;28;20025;-64
2023/10/10 01:33:00;;;;;;;7.55;3.78;;;;;;;;;;5017806;28;20053;-63
2023/10/10 01:35:26;;;;;;;6.38;3.60;;;;;;;;;;5020518;28;20457;-63
2023/10/10 01:37:54;;;;;;;4.93;3.45;;;;;;;;;;5022496;28;20440;-64
2023/10/10 01:40:23;;;;;;;6.97;3.90;;;;;;;;;;5022479;28;20053;-64
2023/10/10 01:42:53;;;;;;;9.80;4.13;;;;;;;;;;5032330;28;20155;-64
2023/10/10 01:45:20;;;;;;;8.00;3.47;;;;;;;;;;5016243;28;20025;-65
2023/10/10 01:50:42;;;;;;;6.03;3.47;;;;;;;;;;5021505;28;20037;-64
2023/10/10 01:53:10;;;;;;;6.40;3.20;;;;;;;;;;5022325;28;20452;-64
2023/10/10 01:55:37;;;;;;;6.45;4.30;;;;;;;;;;5020847;28;20120;-63
2023/10/10 01:58:10;;;;;;;7.65;3.67;;;;;;;;;;5019405;28;20416;-64
2023/10/10 02:00:36;;;;;;;5.20;3.13;;;;;;;;;;5016396;28;20064;-63
2023/10/10 02:03:04;;;;;;;7.32;3.45;;;;;;;;;;5022942;28;20465;-64
2023/10/10 02:05:51;;;;;;;5.97;3.30;;;;;;;;;;5013231;28;20820;-64
2023/10/10 02:08:17;;;;;;;5.90;3.58;;;;;;;;;;5019390;28;20080;-64
2023/10/10 02:10:46;;;;;;;8.20;3.85;;;;;;;;;;5021807;28;20018;-64
2023/10/10 02:13:12;;;;;;;7.82;4.05;;;;;;;;;;5047939;28;20457;-64
2023/10/10 02:15:39;;;;;;;7.22;3.45;;;;;;;;;;5019103;28;20104;-64
2023/10/10 02:18:23;;;;;;;5.50;3.35;;;;;;;;;;5014706;28;20029;-64
2023/10/10 02:20:51;;;;;;;6.43;3.20;;;;;;;;;;5018167;28;20029;-63
2023/10/10 02:23:24;;;;;;;5.53;3.60;;;;;;;;;;5020806;28;20041;-64
2023/10/10 02:25:53;;;;;;;5.63;3.25;;;;;;;;;;5019998;28;20051;-64
2023/10/10 02:28:20;;;;;;;6.78;3.05;;;;;;;;;;5019251;28;20508;-64
2023/10/10 02:30:52;;;;;;;6.78;3.33;;;;;;;;;;5020907;28;20021;-64
2023/10/10 02:35:54;;;;;;;5.78;3.25;;;;;;;;;;5022357;28;20034;-63
2023/10/10 02:38:39;;;;;;;6.57;3.47;;;;;;;;;;5020815;28;20033;-64
2023/10/10 02:41:38;;;;;;;6.40;3.60;;;;;;;;;;5016502;28;20052;-63
2023/10/10 02:46:40;;;;;;;5.63;3.05;;;;;;;;;;5022316;28;20030;-64
2023/10/10 02:49:12;;;;;;;6.30;3.40;;;;;;;;;;5017467;28;20030;-64
2023/10/10 02:51:41;;;;;;;8.48;3.33;;;;;;;;;;5020243;28;20029;-64
2023/10/10 02:56:57;;;;;;;4.07;3.13;;;;;;;;;;5014046;28;20103;-63
2023/10/10 02:59:37;;;;;;;5.10;3.53;;;;;;;;;;5022227;28;20033;-63
2023/10/10 03:02:18;;;;;;;5.97;4.03;;;;;;;;;;5022611;28;20032;-63
2023/10/10 03:07:29;;;;;;;9.35;3.65;;;;;;;;;;5048978;28;20061;-64
2023/10/10 03:12:43;;;;;;;8.63;3.35;;;;;;;;;;5011263;28;20045;-64
2023/10/10 03:17:50;;;;;;;5.43;3.10;;;;;;;;;;5020574;28;20047;-64
2023/10/10 03:20:49;;;;;;;6.00;3.22;;;;;;;;;;5022527;28;20033;-64
2023/10/10 03:28:20;;;;;;;6.13;3.10;;;;;;;;;;5021681;28;20577;-68
2023/10/10 03:30:50;;;;;;;6.93;3.50;;;;;;;;;;5024155;28;20033;-68
2023/10/10 03:33:29;;;;;;;5.15;3.28;;;;;;;;;;5021869;28;20747;-68
2023/10/10 03:36:02;;;;;;;6.72;3.03;;;;;;;;;;5013034;28;21041;-68
2023/10/10 03:41:26;;;;;;;5.30;2.60;;;;;;;;;;5024985;28;20053;-68
2023/10/10 05:25:52;;;;;;;5.23;3.03;;;;;;;;;;5021447;28;20041;-64
2023/10/10 05:28:23;;;;;;;7.15;3.15;;;;;;;;;;5019737;28;20292;-64
2023/10/10 05:30:51;;;;;;;9.70;3.58;;;;;;;;;;5018342;28;20370;-66
2023/10/10 05:33:21;;;;;;;5.68;3.05;;;;;;;;;;5017888;28;20033;-64
2023/10/10 05:35:47;;;;;;;5.53;3.67;;;;;;;;;;5026075;28;20036;-68
2023/10/10 05:38:17;;;;;;;8.10;3.63;;;;;;;;;;5017426;28;20057;-70
2023/10/10 05:40:43;;;;;;;7.60;3.50;;;;;;;;;;5019705;28;20383;-71
2023/10/10 05:43:09;;;;;;;7.55;3.72;;;;;;;;;;5015686;28;20556;-71
2023/10/10 05:45:36;;;;;;;6.22;3.53;;;;;;;;;;5018915;28;20121;-71
2023/10/10 05:48:03;;;;;;;7.47;4.13;;;;;;;;;;5018292;28;20032;-71
2023/10/10 05:50:29;;;;;;;9.10;4.13;;;;;;;;;;5010888;28;20029;-71
2023/10/10 05:52:55;;;;;;;6.15;3.60;;;;;;;;;;5017982;28;20664;-71
2023/10/10 05:55:21;;;;;;;6.20;4.18;;;;;;;;;;5022017;28;20484;-73
2023/10/10 05:57:49;;;;;;;6.38;3.50;;;;;;;;;;5014836;28;20148;-70
2023/10/10 06:00:15;;;;;;;4.68;3.45;;;;;;;;;;5013760;28;20033;-70
2023/10/10 06:02:42;;;;;;;11.30;3.92;;;;;;;;;;5021474;28;20029;-71
2023/10/10 06:05:12;;;;;;;7.93;3.72;;;;;;;;;;5020405;28;20045;-64
2023/10/10 06:07:43;;;;;;;6.18;4.22;;;;;;;;;;5031457;28;20119;-65
2023/10/10 06:10:15;;;;;;;7.47;3.25;;;;;;;;;;5022328;28;20022;-64
2023/10/10 06:12:42;;;;;;;6.05;3.40;;;;;;;;;;5020872;28;20466;-64
2023/10/10 06:15:08;;;;;;;7.20;3.63;;;;;;;;;;5019725;28;20109;-64
2023/10/10 06:17:34;;;;;;;4.68;3.47;;;;;;;;;;5012630;28;20033;-70
2023/10/10 06:20:01;;;;;;;5.40;3.40;;;;;;;;;;5017364;28;20957;-70
2023/10/10 06:22:29;;;;;;;6.65;3.15;;;;;;;;;;5017343;28;20060;-69
2023/10/10 06:24:59;;;;;;;7.03;3.35;;;;;;;;;;5023685;28;20481;-69
2023/10/10 06:27:28;;;;;;;5.05;3.78;;;;;;;;;;5022227;28;20100;-70
2023/10/10 06:30:01;;;;;;;7.97;4.05;;;;;;;;;;5022391;28;20489;-70
2023/10/10 06:32:30;;;;;;;7.70;3.33;;;;;;;;;;5021194;28;20032;-70
2023/10/10 06:37:44;;;;;;;5.28;3.63;;;;;;;;;;5022721;28;20034;-63
2023/10/10 06:40:10;;;;;;;4.70;3.50;;;;;;;;;;5024236;28;20053;-63
2023/10/10 06:42:37;;;;;;;6.60;3.63;;;;;;;;;;5023453;28;20029;-63
2023/10/10 06:45:11;;;;;;;6.15;3.38;;;;;;;;;;5024533;28;20026;-63
2023/10/10 06:47:43;;;;;;;7.22;3.80;;;;;;;;;;5022240;28;20576;-63
2023/10/10 06:50:12;;;;;;;6.50;3.92;;;;;;;;;;5023382;28;20036;-63
2023/10/10 06:52:39;;;;;;;8.85;4.32;;;;;;;;;;5022559;28;20041;-66
2023/10/10 06:55:12;;;;;;;7.50;4.00;;;;;;;;;;5019734;28;20482;-63
2023/10/10 06:57:39;;;;;;;5.38;3.67;;;;;;;;;;5019939;28;20670;-63
2023/10/10 07:00:53;;;;;;;9.05;3.83;;;;;;;;;;5019528;28;20080;-63
2023/10/10 07:02:56;;;;;;;5.88;3.58;;;;;;;;;;5014699;28;20040;-63
2023/10/10 07:05:26;;;;;;;6.45;3.67;;;;;;;;;;5017586;28;20822;-63
2023/10/10 07:07:57;;;;;;;7.07;3.88;;;;;;;;;;5018279;28;20034;-63
2023/10/10 07:10:32;;;;;;;4.53;3.40;;;;;;;;;;5027338;28;20029;-63
2023/10/10 07:12:59;;;;;;;5.43;3.33;;;;;;;;;;5025147;28;20041;-63
2023/10/10 07:15:26;;;;;;;5.38;3.05;;;;;;;;;;5014779;28;20072;-63
2023/10/10 07:18:04;;;;;;;6.15;3.80;;;;;;;;;;5028913;28;20416;-63
2023/10/10 07:23:16;;;;;;;8.55;3.47;;;;;;;;;;5023476;28;20504;-63
2023/10/10 07:25:57;;;;;;;9.95;4.00;;;;;;;;;;5022666;28;20025;-63
2023/10/10 07:28:26;;;;;;;5.85;3.58;;;;;;;;;;5023924;28;20025;-63
2023/10/10 07:30:52;;;;;;;7.57;3.30;;;;;;;;;;5020379;28;20045;-63
2023/10/10 07:33:22;;;;;;;8.68;3.58;;;;;;;;;;5022990;28;20034;-63
2023/10/10 07:35:53;;;;;;;5.07;3.58;;;;;;;;;;5022967;28;20053;-62
2023/10/10 07:38:29;;;;;;;6.80;3.70;;;;;;;;;;5011422;28;20029;-63
2023/10/10 07:40:55;;;;;;;6.93;3.95;;;;;;;;;;5020976;28;20068;-63
2023/10/10 07:43:26;;;;;;;5.05;2.85;;;;;;;;;;5022787;28;20025;-63
2023/10/10 07:45:54;;;;;;;9.13;3.78;;;;;;;;;;5022022;28;20060;-63
2023/10/10 07:50:56;;;;;;;5.00;3.53;;;;;;;;;;5020782;28;20040;-63
2023/10/10 07:53:31;;;;;;;6.15;3.53;;;;;;;;;;5018717;28;20073;-69
2023/10/10 07:56:03;;;;;;;4.00;3.22;;;;;;;;;;5020043;28;20373;-71
2023/10/10 07:58:49;;;;;;;6.45;3.22;;;;;;;;;;5017602;28;20025;-69
2023/10/10 08:01:18;;;;;;;11.48;3.45;;;;;;;;;;5023013;28;20040;-69
2023/10/10 08:03:45;;;;;;;6.55;2.95;;;;;;;;;;5021362;28;20116;-69
2023/10/10 08:06:12;;;;;;;7.30;2.95;;;;;;;;;;5019858;28;20033;-70
2023/10/10 08:08:40;;;;;;;6.47;3.60;;;;;;;;;;5023303;28;20552;-70
2023/10/10 08:11:12;;;;;;;6.82;3.78;;;;;;;;;;5025215;28;20043;-69
2023/10/10 08:13:39;;;;;;;5.30;3.38;;;;;;;;;;5023768;28;20456;-70
2023/10/10 08:16:06;;;;;;;6.95;3.72;;;;;;;;;;5026577;28;20428;-70
2023/10/10 08:21:10;;;;;;;4.72;3.50;;;;;;;;;;5022354;28;20556;-69
2023/10/10 08:23:43;;;;;;;6.22;3.72;;;;;;;;;;5025325;28;20025;-69
2023/10/10 08:26:18;;;;;;;5.88;3.70;;;;;;;;;;5024308;28;20032;-69
2023/10/10 08:28:48;;;;;;;5.55;3.30;;;;;;;;;;5026767;28;20033;-69
2023/10/10 08:31:15;;;;;;;8.75;4.22;;;;;;;;;;5021392;28;20110;-69
2023/10/10 08:33:45;;;;;;;7.40;4.25;;;;;;;;;;5025172;28;20104;-69
2023/10/10 08:36:23;;;;;;;9.85;3.42;;;;;;;;;;5025621;28;20091;-69
2023/10/10 08:38:56;;;;;;;8.40;3.35;;;;;;;;;;5019205;28;20076;-69
2023/10/10 08:41:26;;;;;;;5.80;3.58;;;;;;;;;;5023319;28;20045;-69
2023/10/10 08:43:53;;;;;;;7.65;3.55;;;;;;;;;;5023937;28;21041;-69
2023/10/10 08:46:26;;;;;;;6.35;3.63;;;;;;;;;;5022376;28;20517;-68
2023/10/10 08:48:52;;;;;;;10.48;3.00;;;;;;;;;;5022789;28;20425;-70
2023/10/10 08:51:18;;;;;;;8.00;3.03;;;;;;;;;;5024757;28;20382;-69
2023/10/10 08:53:45;;;;;;;5.75;3.45;;;;;;;;;;5025751;28;20034;-69
2023/10/10 08:56:14;;;;;;;5.10;3.40;;;;;;;;;;5020154;28;20025;-69
2023/10/10 08:58:41;;;;;;;5.85;3.58;;;;;;;;;;5018479;28;20034;-69
2023/10/10 09:01:08;;;;;;;7.13;3.65;;;;;;;;;;5021349;28;20464;-69
2023/10/10 09:03:34;;;;;;;7.00;3.60;;;;;;;;;;5024981;28;20478;-68
2023/10/10 09:06:14;;;;;;;5.88;3.50;;;;;;;;;;5018143;28;20386;-69
2023/10/10 09:08:43;;;;;;;4.80;3.25;;;;;;;;;;5021821;28;20029;-68
2023/10/10 09:11:11;;;;;;;4.93;3.83;;;;;;;;;;5016326;28;20030;-69
2023/10/10 09:13:51;;;;;;;6.72;3.30;;;;;;;;;;5022963;28;20041;-70
2023/10/10 09:16:19;;;;;;;8.02;4.38;;;;;;;;;;5015141;28;20025;-69
2023/10/10 09:18:45;;;;;;;8.68;4.22;;;;;;;;;;5022896;28;20085;-70
2023/10/10 09:21:18;;;;;;;5.63;3.28;;;;;;;;;;5024934;28;20040;-69
2023/10/10 09:23:52;;;;;;;6.35;3.83;;;;;;;;;;5024443;28;20068;-70
2023/10/10 09:26:29;;;;;;;5.93;3.60;;;;;;;;;;5024786;28;20021;-69
2023/10/10 09:29:00;;;;;;;9.25;4.15;;;;;;;;;;5023912;28;20047;-70
2023/10/10 09:31:32;;;;;;;6.88;3.65;;;;;;;;;;5027155;28;20025;-70
2023/10/10 09:34:03;;;;;;;9.25;3.92;;;;;;;;;;5022927;28;20390;-69
2023/10/10 09:36:29;;;;;;;6.05;3.22;;;;;;;;;;5013766;28;20108;-69
2023/10/10 09:39:08;;;;;;;6.43;3.33;;;;;;;;;;5025072;28;20033;-71
2023/10/10 09:49:44;;;;;;;6.80;3.50;;;;;;;;;;5021519;28;20029;-70
2023/10/10 09:57:42;;;;;;;7.00;3.67;;;;;;;;;;5020064;28;20120;-69
2023/10/10 10:00:15;;;;;;;5.93;3.80;;;;;;;;;;5016351;28;20078;-70
2023/10/10 10:02:43;;;;;;;7.35;3.70;;;;;;;;;;5014423;28;20072;-69
2023/10/10 10:05:16;;;;;;;6.05;4.15;;;;;;;;;;5016636;28;20040;-69
2023/10/10 10:08:05;;;;;;;7.72;3.55;;;;;;;;;;5022494;28;20028;-71
2023/10/10 10:10:49;;;;;;;5.78;4.22;;;;;;;;;;5035151;28;20085;-70
2023/10/10 10:13:28;;;;;;;7.22;3.80;;;;;;;;;;5015862;28;20122;-70
2023/10/10 10:16:08;;;;;;;5.22;3.70;;;;;;;;;;5018347;28;20051;-69
2023/10/10 10:18:52;;;;;;;8.57;4.28;;;;;;;;;;5021834;28;20120;-70
2023/10/10 10:21:19;;;;;;;6.60;3.80;;;;;;;;;;5020420;28;20549;-70
2023/10/10 10:23:56;;;;;;;20.65;4.20;;;;;;;;;;5021637;28;20041;-70
2023/10/10 10:28:57;;;;;;;9.25;3.63;;;;;;;;;;5021511;28;20087;-70
2023/10/10 10:31:28;;;;;;;8.00;3.58;;;;;;;;;;5019285;28;20026;-70
2023/10/10 10:34:08;;;;;;;7.15;4.53;;;;;;;;;;5020003;28;20621;-70
2023/10/10 10:36:44;;;;;;;5.88;3.75;;;;;;;;;;5023986;28;20033;-70
2023/10/10 10:39:19;;;;;;;6.82;3.70;;;;;;;;;;5018350;28;20033;-69
2023/10/10 10:41:53;;;;;;;8.80;3.95;;;;;;;;;;5015121;28;20045;-71
2023/10/10 10:44:29;;;;;;;5.93;3.50;;;;;;;;;;5020738;28;20029;-70
2023/10/10 10:46:57;;;;;;;5.32;3.50;;;;;;;;;;5024002;28;20393;-70
2023/10/10 10:49:28;;;;;;;5.95;4.18;;;;;;;;;;5025257;28;20436;-70
2023/10/10 10:52:17;;;;;;;6.97;4.80;;;;;;;;;;5022818;28;20029;-69
2023/10/10 10:54:43;;;;;;;8.23;3.88;;;;;;;;;;5017697;28;20049;-69
2023/10/10 10:57:27;;;;;;;5.70;3.75;;;;;;;;;;5022424;28;20475;-69
2023/10/10 10:59:56;;;;;;;5.78;3.63;;;;;;;;;;5021439;28;20022;-71
2023/10/10 11:02:35;;;;;;;5.50;3.72;;;;;;;;;;5021549;28;20120;-70
2023/10/10 11:05:07;;;;;;;7.25;3.95;;;;;;;;;;5019449;28;20254;-70
2023/10/10 11:07:41;;;;;;;6.53;4.07;;;;;;;;;;5015292;28;20365;-70
2023/10/10 11:10:07;;;;;;;7.07;4.20;;;;;;;;;;5023695;28;20065;-69
2023/10/10 11:12:36;;;;;;;8.27;3.75;;;;;;;;;;5021388;28;20469;-71
2023/10/10 11:15:07;;;;;;;6.07;3.67;;;;;;;;;;5023867;28;20032;-70
2023/10/10 11:17:40;;;;;;;9.35;4.43;;;;;;;;;;5023508;28;20029;-70
2023/10/10 11:23:11;;;;;;;8.48;4.32;;;;;;;;;;5000261;28;20040;-70
2023/10/10 11:25:58;;;;;;;12.88;5.22;;;;;;;;;;5018875;28;20347;-70
2023/10/10 11:28:36;;;;;;;6.88;4.18;;;;;;;;;;5021007;28;20041;-70
2023/10/10 11:31:07;;;;;;;5.70;4.07;;;;;;;;;;5021470;28;20053;-70
2023/10/10 11:33:55;;;;;;;5.65;4.38;;;;;;;;;;5049816;28;20121;-70
2023/10/10 11:36:24;;;;;;;9.15;4.40;;;;;;;;;;5021424;28;20029;-71
2023/10/10 11:38:56;;;;;;;9.63;4.13;;;;;;;;;;5021717;28;20060;-70
2023/10/10 11:41:29;;;;;;;7.32;4.53;;;;;;;;;;5023636;28;20049;-70
2023/10/10 11:44:04;;;;;;;8.90;4.35;;;;;;;;;;5027482;28;20059;-70
2023/10/10 11:46:30;;;;;;;;;;;;;;;;;;5019879;28;20033;-70
2023/10/10 11:48:56;;;;;;;8.15;4.07;;;;;;;;;;5014836;28;20299;-70
2023/10/10 11:51:35;;;;;;;6.93;4.88;;;;;;;;;;5027231;28;20021;-70
2023/10/10 11:54:01;;;;;;;6.05;4.40;;;;;;;;;;5023541;28;20104;-70
2023/10/10 11:56:31;;;;;;;8.60;4.32;;;;;;;;;;5025156;28;20054;-70
2023/10/10 11:58:57;;;;;;;6.80;4.55;;;;;;;;;;5020545;28;20043;-70
2023/10/10 12:04:20;;;;;;;7.57;4.72;;;;;;;;;;5026291;28;20044;-71
2023/10/10 12:06:47;;;;;;;6.57;4.20;;;;;;;;;;5018060;28;20136;-71
2023/10/10 12:09:18;;;;;;;7.60;4.38;;;;;;;;;;5025537;28;20029;-71
2023/10/10 12:11:44;;;;;;;7.05;4.32;;;;;;;;;;5019992;28;20370;-70
2023/10/10 12:14:19;;;;;;;7.07;4.57;;;;;;;;;;5026866;28;20025;-71
2023/10/10 12:16:50;;;;;;;14.77;5.90;;;;;;;;;;5014424;28;20030;-64
2023/10/10 12:19:16;;;;;;;6.22;4.13;;;;;;;;;;5021380;28;20033;-63
2023/10/10 12:21:42;;;;;;;5.13;4.05;;;;;;;;;;5017711;28;20033;-64
2023/10/10 12:24:08;;;;;;;8.90;4.00;;;;;;;;;;5022368;28;20032;-64
2023/10/10 12:26:39;;;;;;;7.35;4.38;;;;;;;;;;5018217;28;20119;-65
2023/10/10 12:29:05;;;;;;;6.00;4.22;;;;;;;;;;5019083;28;20049;-65
2023/10/10 12:31:34;;;;;;;7.05;4.47;;;;;;;;;;5016705;28;20113;-66
2023/10/10 12:34:00;;;;;;;5.97;4.60;;;;;;;;;;5020830;28;20036;-66
2023/10/10 12:36:29;;;;;;;11.00;4.90;;;;;;;;;;5018858;28;20022;-66
2023/10/10 12:38:57;;;;;;;6.35;4.25;;;;;;;;;;5021292;28;20032;-65
2023/10/10 12:41:23;;;;;;;12.38;4.70;;;;;;;;;;5022688;28;20513;-72
2023/10/10 12:43:50;;;;;;;9.02;4.35;;;;;;;;;;5021500;28;20844;-72
2023/10/10 12:46:20;;;;;;;11.77;4.88;;;;;;;;;;5021506;28;20060;-73
2023/10/10 12:48:46;;;;;;;6.28;4.00;;;;;;;;;;5018811;28;20065;-72
2023/10/10 12:51:15;;;;;;;8.15;4.45;;;;;;;;;;5017596;28;20021;-72
2023/10/10 12:53:43;;;;;;;5.15;4.38;;;;;;;;;;5022330;28;20060;-72
2023/10/10 12:56:12;;;;;;;9.65;4.70;;;;;;;;;;5018968;28;20036;-71
2023/10/10 12:58:43;;;;;;;6.90;4.10;;;;;;;;;;5018685;28;20022;-71
2023/10/10 13:01:22;;;;;;;5.00;4.18;;;;;;;;;;5014715;28;20049;-72
2023/10/10 13:03:48;;;;;;;8.52;4.57;;;;;;;;;;5017150;28;20480;-71
2023/10/10 13:06:15;;;;;;;8.55;4.32;;;;;;;;;;5014011;28;20129;-72
2023/10/10 13:08:49;;;;;;;11.48;4.72;;;;;;;;;;5018370;28;20112;-72
2023/10/10 13:11:16;;;;;;;5.75;3.92;;;;;;;;;;5013576;28;20052;-72
2023/10/10 13:13:45;;;;;;;7.47;4.22;;;;;;;;;;5020496;28;20045;-71
2023/10/10 13:18:59;;;;;;;7.35;4.55;;;;;;;;;;5017368;28;20565;-72
2023/10/10 13:21:26;;;;;;;6.00;4.20;;;;;;;;;;5015367;28;20025;-72
2023/10/10 13:23:53;;;;;;;9.38;4.20;;;;;;;;;;5016745;28;20633;-72
2023/10/10 13:26:25;;;;;;;8.00;4.65;;;;;;;;;;5020153;28;20112;-72
2023/10/10 13:28:51;;;;;;;10.50;4.55;;;;;;;;;;5018145;28;20486;-73
2023/10/10 13:31:18;;;;;;;6.18;4.03;;;;;;;;;;5017727;28;20484;-72
2023/10/10 13:33:45;;;;;;;7.65;4.40;;;;;;;;;;5018306;28;20489;-72
2023/10/10 13:36:17;;;;;;;7.25;4.65;;;;;;;;;;5020468;28;20022;-72
2023/10/10 13:38:48;;;;;;;5.18;3.33;;;;;;;;;;5018069;28;20092;-72
2023/10/10 13:41:19;;;;;;;6.97;4.07;;;;;;;;;;5018650;28;20087;-72
2023/10/10 13:43:47;;;;;;;8.00;4.30;;;;;;;;;;5019102;28;20130;-72
2023/10/10 13:46:13;;;;;;;7.15;3.92;;;;;;;;;;5020878;28;20026;-72
2023/10/10 13:48:39;;;;;;;6.50;4.05;;;;;;;;;;5017744;28;20116;-66
2023/10/10 13:51:07;;;;;;;8.88;4.32;;;;;;;;;;5020752;28;20400;-65
2023/10/10 13:53:34;;;;;;;7.47;4.10;;;;;;;;;;5013536;28;20066;-65
2023/10/10 13:56:03;;;;;;;9.32;4.25;;;;;;;;;;5020271;28;20568;-65
2023/10/10 13:58:30;;;;;;;7.18;4.05;;;;;;;;;;5014298;28;20091;-65
2023/10/10 14:04:00;;;;;;;6.03;3.78;;;;;;;;;;5008583;28;20049;-65
2023/10/10 14:06:27;;;;;;;;;;;;;;;;;;5011133;28;20520;-64
2023/10/10 14:08:54;;;;;;;4.43;3.63;;;;;;;;;;5013349;28;19913;-65
2023/10/10 14:11:23;;;;;;;9.40;4.80;;;;;;;;;;5014885;28;20029;-64
2023/10/10 14:13:50;;;;;;;8.75;4.13;;;;;;;;;;5027890;28;20036;-64
2023/10/10 14:16:16;;;;;;;6.50;3.65;;;;;;;;;;5014241;28;20034;-65
2023/10/10 14:18:43;;;;;;;9.27;3.30;;;;;;;;;;5021151;28;20092;-66
2023/10/10 14:21:12;;;;;;;5.05;3.47;;;;;;;;;;5017663;28;20038;-63
2023/10/10 14:23:39;;;;;;;7.25;3.88;;;;;;;;;;5013547;28;20474;-64
2023/10/10 14:26:26;;;;;;;6.90;3.65;;;;;;;;;;5018304;28;20465;-64
2023/10/10 14:28:53;;;;;;;8.43;4.40;;;;;;;;;;5018546;28;20017;-64
2023/10/10 14:31:27;;;;;;;6.22;4.10;;;;;;;;;;5016507;28;20041;-64
2023/10/10 14:33:53;;;;;;;;;;;;;;;;;;5018961;28;20052;-64
2023/10/10 14:36:20;;;;;;;9.52;3.88;;;;;;;;;;5017536;28;19925;-64
2023/10/10 14:38:46;;;;;;;5.95;3.70;;;;;;;;;;5021705;28;20144;-66
2023/10/10 14:41:17;;;;;;;8.13;4.45;;;;;;;;;;5019901;28;20140;-64
2023/10/10 14:43:48;;;;;;;5.53;3.47;;;;;;;;;;5016172;28;21397;-65
2023/10/10 14:46:21;;;;;;;8.27;3.58;;;;;;;;;;5023046;28;21206;-64
2023/10/10 14:48:47;;;;;;;6.20;3.45;;;;;;;;;;5018331;28;20083;-65
2023/10/10 14:51:17;;;;;;;10.02;4.07;;;;;;;;;;5011710;28;20029;-65
2023/10/10 14:53:48;;;;;;;6.50;3.58;;;;;;;;;;5021295;28;20030;-64
2023/10/10 14:56:19;;;;;;;6.70;3.70;;;;;;;;;;5031584;28;20021;-63
2023/10/10 14:58:48;;;;;;;6.28;3.70;;;;;;;;;;5023336;28;20037;-64
2023/10/10 15:01:17;;;;;;;5.28;3.22;;;;;;;;;;5023816;28;20030;-64
2023/10/10 15:03:44;;;;;;;5.00;3.40;;;;;;;;;;5019717;28;20041;-64
2023/10/10 15:06:10;;;;;;;7.13;4.10;;;;;;;;;;5020452;28;20071;-65
2023/10/10 15:08:36;;;;;;;6.78;3.75;;;;;;;;;;5019795;28;20033;-64
2023/10/10 15:11:05;;;;;;;4.38;3.17;;;;;;;;;;5021510;28;20313;-66
2023/10/10 15:13:32;;;;;;;7.00;3.60;;;;;;;;;;5014947;28;20535;-64
2023/10/10 15:15:59;;;;;;;7.03;4.07;;;;;;;;;;5026807;28;20450;-64
2023/10/10 15:18:25;;;;;;;4.57;3.15;;;;;;;;;;5022290;28;20672;-65
2023/10/10 15:20:52;;;;;;;5.93;3.63;;;;;;;;;;5026868;28;20037;-64
2023/10/10 15:23:19;;;;;;;5.97;3.22;;;;;;;;;;5022742;28;20032;-65
2023/10/10 15:25:57;;;;;;;6.32;3.50;;;;;;;;;;5028715;28;20042;-64
2023/10/10 15:28:23;;;;;;;7.25;3.50;;;;;;;;;;5023677;28;20071;-64
2023/10/10 15:30:50;;;;;;;4.78;3.63;;;;;;;;;;5018434;28;20466;-64
2023/10/10 15:33:17;;;;;;;6.35;3.95;;;;;;;;;;5025677;28;20108;-65
2023/10/10 15:35:52;;;;;;;6.55;4.38;;;;;;;;;;5016632;28;20025;-64
2023/10/10 15:38:18;;;;;;;7.85;3.95;;;;;;;;;;5016483;28;20025;-63
2023/10/10 15:40:44;;;;;;;10.32;3.85;;;;;;;;;;5024833;28;20087;-65
2023/10/10 15:43:14;;;;;;;6.90;4.13;;;;;;;;;;5024890;28;20029;-65
2023/10/10 15:45:43;;;;;;;6.38;3.78;;;;;;;;;;5025488;28;20033;-64
2023/10/10 15:48:21;;;;;;;11.23;5.03;;;;;;;;;;5020176;28;20034;-65
2023/10/10 15:50:57;;;;;;;9.30;4.38;;;;;;;;;;5031481;28;20030;-64
2023/10/10 15:53:27;;;;;;;6.25;4.53;;;;;;;;;;5016361;28;20052;-65
2023/10/10 15:56:11;;;;;;;4.40;3.45;;;;;;;;;;5019172;28;20469;-63
2023/10/10 15:58:43;;;;;;;6.00;4.00;;;;;;;;;;5018135;28;20033;-64
2023/10/10 16:01:21;;;;;;;7.22;4.30;;;;;;;;;;5024061;28;20041;-64
2023/10/10 16:03:48;;;;;;;5.20;3.60;;;;;;;;;;5018162;28;20226;-65
2023/10/10 16:06:18;;;;;;;6.68;3.88;;;;;;;;;;5017983;28;20030;-64
2023/10/10 16:08:49;;;;;;;6.20;3.63;;;;;;;;;;5008934;28;20104;-64
2023/10/10 16:11:15;;;;;;;4.00;3.10;;;;;;;;;;5044363;28;21965;-65
2023/10/10 16:13:41;;;;;;;5.28;3.83;;;;;;;;;;5020306;28;20133;-64
2023/10/10 16:16:08;;;;;;;6.50;3.75;;;;;;;;;;5023778;28;20026;-65
2023/10/10 16:18:35;;;;;;;6.65;3.50;;;;;;;;;;5022167;28;20028;-64
2023/10/10 16:21:08;;;;;;;4.78;3.45;;;;;;;;;;5016370;28;20021;-72
2023/10/10 16:23:35;;;;;;;5.43;3.58;;;;;;;;;;5016393;28;20426;-71
2023/10/10 16:26:04;;;;;;;6.22;3.50;;;;;;;;;;5009732;28;20112;-72
2023/10/10 16:28:35;;;;;;;5.65;3.90;;;;;;;;;;5021816;28;20057;-73
2023/10/10 16:31:03;;;;;;;5.85;3.38;;;;;;;;;;5015331;28;20513;-72
2023/10/10 16:33:29;;;;;;;6.65;3.50;;;;;;;;;;5026080;28;20781;-72
2023/10/10 16:35:56;;;;;;;6.80;3.10;;;;;;;;;;5016527;28;20072;-73
2023/10/10 16:38:22;;;;;;;5.10;3.53;;;;;;;;;;5017888;28;20041;-72
2023/10/10 16:40:52;;;;;;;7.07;3.25;;;;;;;;;;5020454;28;20128;-72
2023/10/10 16:43:24;;;;;;;5.20;3.30;;;;;;;;;;5019893;28;20053;-73
2023/10/10 16:45:50;;;;;;;4.47;4.07;;;;;;;;;;5021769;28;20025;-72
2023/10/10 16:48:16;;;;;;;7.35;3.80;;;;;;;;;;5019254;28;20025;-72
2023/10/10 16:50:42;;;;;;;6.30;3.50;;;;;;;;;;5024811;28;20037;-72
2023/10/10 16:53:11;;;;;;;4.15;2.97;;;;;;;;;;5019008;28;20039;-72
2023/10/10 16:55:39;;;;;;;4.25;2.92;;;;;;;;;;5017433;28;20029;-72
2023/10/10 16:58:05;;;;;;;4.15;2.80;;;;;;;;;;5035898;28;20033;-72
2023/10/10 17:00:34;;;;;;;5.07;3.67;;;;;;;;;;5020444;28;20063;-72
2023/10/10 17:03:00;;;;;;;5.85;3.63;;;;;;;;;;5018750;28;20442;-72
2023/10/10 17:05:29;;;;;;;5.05;2.92;;;;;;;;;;5020476;28;20154;-72
2023/10/10 17:07:56;;;;;;;4.95;2.83;;;;;;;;;;5014699;28;20049;-72
2023/10/10 17:10:22;;;;;;;4.63;3.15;;;;;;;;;;5021205;28;20636;-72
2023/10/10 17:12:48;;;;;;;4.35;3.47;;;;;;;;;;5018452;28;20044;-72
2023/10/10 17:15:18;;;;;;;6.32;2.60;;;;;;;;;;5020045;28;20036;-72
2023/10/10 17:17:45;;;;;;;3.35;2.60;;;;;;;;;;5022654;28;20492;-73
2023/10/10 17:20:18;;;;;;;2.60;2.40;;;;;;;;;;5018425;28;20025;-73
2023/10/10 17:22:50;;;;;;;3.03;2.53;;;;;;;;;;5024654;28;20390;-73
2023/10/10 17:25:16;;;;;;;3.40;2.40;;;;;;;;;;5019559;28;20123;-71
2023/10/10 17:27:43;;;;;;;3.13;2.47;;;;;;;;;;5019384;28;20067;-69
2023/10/10 17:30:10;;;;;;;4.38;2.45;;;;;;;;;;5019168;28;20472;-70
2023/10/10 17:32:40;;;;;;;2.85;2.22;;;;;;;;;;5013975;28;20113;-70
2023/10/10 17:35:09;;;;;;;3.97;2.83;;;;;;;;;;5014518;28;20751;-70
2023/10/10 17:37:36;;;;;;;3.67;2.50;;;;;;;;;;5029564;28;20033;-71
2023/10/10 17:40:12;;;;;;;3.42;2.40;;;;;;;;;;5014910;28;20060;-70
2023/10/10 17:42:39;;;;;;;3.72;2.30;;;;;;;;;;5016515;28;20449;-70
2023/10/10 17:45:05;;;;;;;4.43;2.85;;;;;;;;;;5016178;28;20026;-71
2023/10/10 17:47:31;;;;;;;3.65;2.63;;;;;;;;;;5014140;28;20029;-70
2023/10/10 17:49:57;;;;;;;4.05;2.38;;;;;;;;;;5018878;28;20032;-71
2023/10/10 17:52:24;;;;;;;3.45;2.67;;;;;;;;;;5009049;28;20087;-70
2023/10/10 17:54:50;;;;;;;2.50;2.22;;;;;;;;;;5013221;28;20034;-70